Portada
METAR-TAF:

METAR-TAF

Aeroports :

Mount Pleasant Municipal Airport

Mount Pleasant, Iowa, Estats Units d'Amèrica

latitud: 40-56-48N, longitud: 091-30-40W, altitud: 224 m

Observació

L'informe es va fer fa 40 minuts, a les 22:35 UTC
Vent 9 kt del Sud amb ràfegues de 16 kt
Temperatura 26°C
Humitat 58%
Pressió 1009 hPa
Visibilitat: 16.1 km
Cel clar

METAR: KMPZ 222235Z AUTO 18009G16KT 10SM CLR 26/17 A2980 RMK AO2

Hora: 18:15 (23:15 UTC)


TAF: manca

Observacions i pronòstics meteorològics de més de 4000 aeroports (METAR i TAF).

Les estacions disponibles són els punts grocs i vermells al mapa.

Posi el ratolí al punt desitjat per veure el nom de l'estació.

Feu clic per veure les observacions i els pronòstics meteorològics.

Per canviar el mapa: feu clic els botons verds amb una creu de color negre per apropar; al botó verd amb un guió per allunyar la imatge; o en les fletxes verdes per a mapes adjacents.


METAR-TAF: